KDYS/DYS METAR and TAF weather

Enter ICAO airport designator
Station Type Date Time Source
KDYS METAR 2022/12/09 21:55 UTC NOAA

KDYS 092155Z AUTO 32004KT 3/4SM R34/4500V5000FT BR OVC002 12/12 A3003 RMK AO2 SLP156 T01170115


Station Type Date Time Source
KDYS Decoded METAR 2022/12/09 21:55 UTC NOAA

Abilene, Dyess Air Force Base, TX, United States (KDYS) 32-25-12N 099-51-25W
Dec 09, 2022 - 04:55 PM EST / 2022.12.09 2155 UTC
Wind: from the NW (320 degrees) at 5 MPH (4 KT) (direction variable):0
Visibility: 3/4 mile(s):0
Sky conditions: overcast
Weather: mist
Temperature: 53.1 F (11.7 C)
Dew Point: 52.7 F (11.5 C)
Relative Humidity: 98%
Pressure (altimeter): 30.03 in. Hg (1016 hPa)
ob: KDYS 092155Z AUTO 32004KT 3/4SM R34/4500V5000FT BR OVC002 12/12 A3003 RMK AO2 SLP156 T01170115
cycle: 22

Station Type Date Time Source
KDYS TAF 2022/12/09 20:03 UTC NOAA

TAF KDYS 092000Z 0920/1023 VRB06KT 1600 BR OVC002 QNH3006INS
BECMG 1004/1005 VRB06KT 3200 -SHRA BR OVC005 QNH3006INS
BECMG 1012/1013 VRB06KT 1600 BR OVC002 QNH3006INS
BECMG 1019/1020 VRB06KT 4800 -SHRA BR OVC008 QNH3004INS TX17/1016Z TN12/0920Z

Example: see airport list